EZY818 LSZH-LIRF
Flight info
| Callsign | EZY818 |
|---|---|
| Flight time | 1h 14m |
| Altitude | 34000 |
| Route | VEBIT T53 GERSA DCT SOSON DCT ODINA/N0458F350 DCT EKPAL DCT TINKU DCT XIBIL |
| Aircraft | B739/M-SDE2E3FGHIRWXY/LB1 |
Departure
| Time | 2026-05-05 11:20 |
|---|---|
| Airport | Zürich Airport (LSZH) |
Arrival
| Time | 2026-05-05 12:34 |
|---|---|
| Airport | Rome–Fiumicino Leonardo da Vinci International Airport (LIRF) |
| Time | Latitude | Longitude | Altitude | Speed | Heading |
|---|---|---|---|---|---|
| 2026-05-05 10:58 | 47.46070 | 8.55173 | 1396 ft | 0 kts | 65° |
| 2026-05-05 11:12 | 47.46069 | 8.55171 | 1406 ft | 1 kts | 65° |
| 2026-05-05 11:12 | 47.46065 | 8.55159 | 1406 ft | 1 kts | 65° |
| 2026-05-05 11:12 | 47.46061 | 8.55146 | 1409 ft | 1 kts | 65° |
| 2026-05-05 11:13 | 47.46057 | 8.55133 | 1404 ft | 1 kts | 65° |
| 2026-05-05 11:13 | 47.46053 | 8.55120 | 1406 ft | 1 kts | 65° |
| 2026-05-05 11:13 | 47.46049 | 8.55107 | 1406 ft | 1 kts | 52° |
| 2026-05-05 11:13 | 47.46042 | 8.55095 | 1407 ft | 1 kts | 46° |
| 2026-05-05 11:14 | 47.46036 | 8.55085 | 1402 ft | 1 kts | 20° |
| 2026-05-05 11:14 | 47.46027 | 8.55083 | 1402 ft | 0 kts | 323° |
| 2026-05-05 11:14 | 47.46026 | 8.55083 | 1402 ft | 0 kts | 322° |
| 2026-05-05 11:14 | 47.46027 | 8.55082 | 1400 ft | 0 kts | 322° |
| 2026-05-05 11:16 | 47.46206 | 8.54954 | 1396 ft | 38 kts | 335° |
| 2026-05-05 11:16 | 47.46435 | 8.54801 | 1395 ft | 34 kts | 334° |
| 2026-05-05 11:16 | 47.46639 | 8.54658 | 1394 ft | 31 kts | 335° |
| 2026-05-05 11:17 | 47.46803 | 8.54478 | 1392 ft | 29 kts | 307° |
| 2026-05-05 11:17 | 47.46956 | 8.54310 | 1401 ft | 27 kts | 335° |
| 2026-05-05 11:17 | 47.47123 | 8.54196 | 1401 ft | 26 kts | 335° |
| 2026-05-05 11:17 | 47.47279 | 8.54090 | 1404 ft | 24 kts | 335° |
| 2026-05-05 11:18 | 47.47425 | 8.53990 | 1398 ft | 23 kts | 335° |
| 2026-05-05 11:18 | 47.47567 | 8.53892 | 1398 ft | 22 kts | 332° |
| 2026-05-05 11:18 | 47.47590 | 8.53694 | 1403 ft | 21 kts | 246° |
| 2026-05-05 11:18 | 47.47464 | 8.53668 | 1397 ft | 9 kts | 156° |
| 2026-05-05 11:19 | 47.47458 | 8.53673 | 1396 ft | 2 kts | 156° |
| 2026-05-05 11:19 | 47.47442 | 8.53683 | 1404 ft | 0 kts | 156° |
| 2026-05-05 11:19 | 47.47437 | 8.53686 | 1403 ft | 3 kts | 156° |
| 2026-05-05 11:19 | 47.47161 | 8.53872 | 1398 ft | 88 kts | 155° |
| 2026-05-05 11:20 | 47.46360 | 8.54422 | 1406 ft | 162 kts | 155° |
| 2026-05-05 11:20 | 47.45235 | 8.55197 | 1884 ft | 189 kts | 156° |
| 2026-05-05 11:20 | 47.44055 | 8.56051 | 2984 ft | 186 kts | 148° |
| 2026-05-05 11:20 | 47.43246 | 8.57582 | 3779 ft | 204 kts | 107° |
| 2026-05-05 11:21 | 47.43341 | 8.59732 | 4198 ft | 222 kts | 63° |
| 2026-05-05 11:21 | 47.44425 | 8.61336 | 4755 ft | 225 kts | 22° |
| 2026-05-05 11:21 | 47.45966 | 8.61526 | 5286 ft | 230 kts | 341° |
| 2026-05-05 11:21 | 47.47244 | 8.60162 | 5809 ft | 232 kts | 300° |
| 2026-05-05 11:22 | 47.47697 | 8.57916 | 6431 ft | 230 kts | 270° |
| 2026-05-05 11:22 | 47.47609 | 8.55557 | 7034 ft | 231 kts | 261° |
| 2026-05-05 11:22 | 47.47198 | 8.53273 | 7620 ft | 233 kts | 235° |
| 2026-05-05 11:22 | 47.46102 | 8.51368 | 7855 ft | 258 kts | 227° |
| 2026-05-05 11:23 | 47.44965 | 8.49244 | 8385 ft | 272 kts | 231° |
| 2026-05-05 11:23 | 47.43878 | 8.46934 | 9178 ft | 275 kts | 234° |
| 2026-05-05 11:23 | 47.42831 | 8.44553 | 10042 ft | 276 kts | 230° |
| 2026-05-05 11:23 | 47.41394 | 8.42599 | 10451 ft | 293 kts | 214° |
| 2026-05-05 11:24 | 47.39649 | 8.40813 | 10627 ft | 317 kts | 214° |
| 2026-05-05 11:24 | 47.37708 | 8.39046 | 10789 ft | 340 kts | 201° |
| 2026-05-05 11:24 | 47.35316 | 8.38457 | 11034 ft | 359 kts | 176° |
| 2026-05-05 11:24 | 47.32888 | 8.39433 | 11590 ft | 370 kts | 158° |
| 2026-05-05 11:25 | 47.30549 | 8.41097 | 12265 ft | 375 kts | 156° |
| 2026-05-05 11:25 | 47.28198 | 8.42802 | 12892 ft | 380 kts | 156° |
| 2026-05-05 11:25 | 47.25794 | 8.44491 | 13499 ft | 385 kts | 157° |
| 2026-05-05 11:25 | 47.23394 | 8.46173 | 14100 ft | 390 kts | 156° |
| 2026-05-05 11:26 | 47.20937 | 8.48018 | 14762 ft | 392 kts | 155° |
| 2026-05-05 11:26 | 47.18507 | 8.49858 | 15423 ft | 393 kts | 157° |
| 2026-05-05 11:26 | 47.15984 | 8.51261 | 16024 ft | 392 kts | 167° |
| 2026-05-05 11:26 | 47.13263 | 8.52001 | 16633 ft | 393 kts | 176° |
| 2026-05-05 11:27 | 47.10534 | 8.52328 | 17236 ft | 395 kts | 177° |
| 2026-05-05 11:27 | 47.07822 | 8.52658 | 17815 ft | 398 kts | 176° |
| 2026-05-05 11:27 | 47.05045 | 8.53031 | 18364 ft | 401 kts | 176° |
| 2026-05-05 11:27 | 47.02257 | 8.53427 | 18867 ft | 403 kts | 175° |
| 2026-05-05 11:28 | 46.99461 | 8.53832 | 19404 ft | 405 kts | 175° |
| 2026-05-05 11:28 | 46.96652 | 8.54241 | 19926 ft | 407 kts | 175° |
| 2026-05-05 11:28 | 46.93819 | 8.54651 | 20368 ft | 411 kts | 175° |
| 2026-05-05 11:28 | 46.90968 | 8.55064 | 20952 ft | 411 kts | 175° |
| 2026-05-05 11:29 | 46.88118 | 8.55476 | 21484 ft | 413 kts | 175° |
| 2026-05-05 11:29 | 46.85252 | 8.55888 | 21941 ft | 415 kts | 175° |
| 2026-05-05 11:29 | 46.82366 | 8.56302 | 22427 ft | 417 kts | 175° |
| 2026-05-05 11:29 | 46.79474 | 8.56717 | 22880 ft | 420 kts | 175° |
| 2026-05-05 11:30 | 46.76548 | 8.57136 | 23328 ft | 423 kts | 175° |
| 2026-05-05 11:30 | 46.73619 | 8.57555 | 23794 ft | 423 kts | 175° |
| 2026-05-05 11:30 | 46.70681 | 8.57975 | 24222 ft | 425 kts | 175° |
| 2026-05-05 11:30 | 46.67720 | 8.58398 | 24548 ft | 428 kts | 175° |
| 2026-05-05 11:31 | 46.64755 | 8.58824 | 24924 ft | 429 kts | 175° |
| 2026-05-05 11:31 | 46.61772 | 8.59247 | 25319 ft | 431 kts | 175° |
| 2026-05-05 11:31 | 46.58786 | 8.59671 | 25662 ft | 433 kts | 175° |
| 2026-05-05 11:31 | 46.56789 | 8.59955 | 25893 ft | 435 kts | 176° |
| 2026-05-05 11:32 | 46.52789 | 8.60523 | 26360 ft | 438 kts | 176° |
| 2026-05-05 11:32 | 46.50738 | 8.60815 | 26583 ft | 439 kts | 176° |
| 2026-05-05 11:32 | 46.46695 | 8.61388 | 27023 ft | 442 kts | 176° |
| 2026-05-05 11:32 | 46.43624 | 8.61823 | 27375 ft | 444 kts | 176° |
| 2026-05-05 11:33 | 46.40545 | 8.62259 | 27744 ft | 445 kts | 176° |
| 2026-05-05 11:33 | 46.37467 | 8.62694 | 28129 ft | 444 kts | 176° |
| 2026-05-05 11:33 | 46.35384 | 8.62988 | 28487 ft | 443 kts | 176° |
| 2026-05-05 11:33 | 46.32369 | 8.63416 | 28966 ft | 441 kts | 176° |
| 2026-05-05 11:34 | 46.29317 | 8.63847 | 29437 ft | 440 kts | 176° |
| 2026-05-05 11:34 | 46.26269 | 8.64275 | 29903 ft | 439 kts | 176° |
| 2026-05-05 11:34 | 46.23238 | 8.64700 | 30328 ft | 437 kts | 177° |
| 2026-05-05 11:34 | 46.20215 | 8.65125 | 30721 ft | 436 kts | 177° |
| 2026-05-05 11:35 | 46.17182 | 8.65550 | 31054 ft | 437 kts | 178° |
| 2026-05-05 11:35 | 46.14169 | 8.66028 | 31471 ft | 436 kts | 174° |
| 2026-05-05 11:35 | 46.11217 | 8.67081 | 31883 ft | 439 kts | 166° |
| 2026-05-05 11:35 | 46.08369 | 8.68673 | 32160 ft | 443 kts | 160° |
| 2026-05-05 11:36 | 46.05651 | 8.70855 | 32394 ft | 450 kts | 152° |
| 2026-05-05 11:36 | 46.03035 | 8.73343 | 32679 ft | 451 kts | 152° |
| 2026-05-05 11:36 | 46.00434 | 8.75867 | 33003 ft | 451 kts | 152° |
| 2026-05-05 11:36 | 45.97840 | 8.78392 | 33347 ft | 450 kts | 152° |
| 2026-05-05 11:37 | 45.95251 | 8.80900 | 33662 ft | 450 kts | 152° |
| 2026-05-05 11:37 | 45.92643 | 8.83407 | 33997 ft | 449 kts | 152° |
| 2026-05-05 11:37 | 45.90029 | 8.85904 | 34000 ft | 452 kts | 153° |
| 2026-05-05 11:38 | 45.84799 | 8.90870 | 34012 ft | 450 kts | 153° |
| 2026-05-05 11:38 | 45.79585 | 8.95800 | 34007 ft | 448 kts | 153° |
| 2026-05-05 11:39 | 45.74384 | 9.00704 | 33996 ft | 447 kts | 153° |
| 2026-05-05 11:39 | 45.69173 | 9.05607 | 34002 ft | 448 kts | 153° |
| 2026-05-05 11:40 | 45.63957 | 9.10504 | 33996 ft | 449 kts | 153° |
| 2026-05-05 11:40 | 45.58730 | 9.15403 | 33988 ft | 450 kts | 153° |
| 2026-05-05 11:41 | 45.53484 | 9.20307 | 33983 ft | 451 kts | 153° |
| 2026-05-05 11:41 | 45.48225 | 9.25213 | 33995 ft | 452 kts | 153° |
| 2026-05-05 11:42 | 45.42962 | 9.30111 | 33993 ft | 453 kts | 153° |
| 2026-05-05 11:42 | 45.37701 | 9.34997 | 33993 ft | 454 kts | 153° |
| 2026-05-05 11:43 | 45.32401 | 9.39908 | 33990 ft | 456 kts | 153° |
| 2026-05-05 11:43 | 45.27068 | 9.44837 | 33992 ft | 458 kts | 153° |
| 2026-05-05 11:44 | 45.21714 | 9.49776 | 33983 ft | 460 kts | 153° |
| 2026-05-05 11:44 | 45.16362 | 9.54703 | 33962 ft | 458 kts | 153° |
| 2026-05-05 11:45 | 45.11031 | 9.59600 | 33964 ft | 456 kts | 153° |
| 2026-05-05 11:45 | 45.05717 | 9.64469 | 33963 ft | 454 kts | 153° |
| 2026-05-05 11:46 | 45.00417 | 9.69313 | 33961 ft | 453 kts | 153° |
| 2026-05-05 11:46 | 44.95128 | 9.74136 | 33963 ft | 452 kts | 153° |
| 2026-05-05 11:47 | 44.89844 | 9.78944 | 33967 ft | 452 kts | 153° |
| 2026-05-05 11:47 | 44.84590 | 9.83714 | 33964 ft | 453 kts | 153° |
| 2026-05-05 11:48 | 44.76627 | 9.90924 | 33971 ft | 455 kts | 153° |
| 2026-05-05 11:48 | 44.71292 | 9.95742 | 33969 ft | 456 kts | 153° |
| 2026-05-05 11:49 | 44.65954 | 10.00552 | 33966 ft | 457 kts | 153° |
| 2026-05-05 11:49 | 44.60595 | 10.05371 | 33982 ft | 457 kts | 153° |
| 2026-05-05 11:50 | 44.55217 | 10.10197 | 33973 ft | 459 kts | 153° |
| 2026-05-05 11:50 | 44.49825 | 10.15021 | 33971 ft | 460 kts | 154° |
| 2026-05-05 11:51 | 44.44115 | 10.18756 | 33981 ft | 450 kts | 165° |
| 2026-05-05 11:51 | 44.38237 | 10.21773 | 33984 ft | 450 kts | 166° |
| 2026-05-05 11:52 | 44.32358 | 10.24803 | 33985 ft | 450 kts | 165° |
| 2026-05-05 11:52 | 44.26500 | 10.27873 | 33990 ft | 450 kts | 165° |
| 2026-05-05 11:53 | 44.20653 | 10.30954 | 33998 ft | 448 kts | 165° |
| 2026-05-05 11:53 | 44.14807 | 10.34027 | 33982 ft | 450 kts | 165° |
| 2026-05-05 11:54 | 44.08985 | 10.37080 | 33992 ft | 450 kts | 165° |
| 2026-05-05 11:54 | 44.03124 | 10.40146 | 33997 ft | 450 kts | 165° |
| 2026-05-05 11:55 | 43.97260 | 10.43207 | 34003 ft | 450 kts | 165° |
| 2026-05-05 11:55 | 43.91393 | 10.46264 | 34012 ft | 450 kts | 165° |
| 2026-05-05 11:56 | 43.85521 | 10.49317 | 34005 ft | 450 kts | 165° |
| 2026-05-05 11:56 | 43.79640 | 10.52368 | 33980 ft | 451 kts | 165° |
| 2026-05-05 11:57 | 43.73750 | 10.55371 | 34001 ft | 450 kts | 167° |
| 2026-05-05 11:57 | 43.67830 | 10.58120 | 33989 ft | 448 kts | 168° |
| 2026-05-05 11:58 | 43.61916 | 10.60812 | 33998 ft | 449 kts | 167° |
| 2026-05-05 11:58 | 43.55986 | 10.63535 | 33998 ft | 450 kts | 167° |
| 2026-05-05 11:59 | 43.50035 | 10.66282 | 33988 ft | 451 kts | 167° |
| 2026-05-05 11:59 | 43.44084 | 10.69032 | 34000 ft | 452 kts | 167° |
| 2026-05-05 12:00 | 43.38114 | 10.71784 | 33990 ft | 453 kts | 167° |
| 2026-05-05 12:00 | 43.32189 | 10.74509 | 33997 ft | 452 kts | 167° |
| 2026-05-05 12:01 | 43.26186 | 10.77263 | 34005 ft | 451 kts | 167° |
| 2026-05-05 12:01 | 43.20235 | 10.79987 | 34006 ft | 451 kts | 167° |
| 2026-05-05 12:02 | 43.14284 | 10.82705 | 34000 ft | 452 kts | 167° |
| 2026-05-05 12:02 | 43.08364 | 10.85406 | 33992 ft | 445 kts | 167° |
| 2026-05-05 12:03 | 43.05478 | 10.86728 | 33983 ft | 428 kts | 168° |
| 2026-05-05 12:03 | 43.02711 | 10.87996 | 33986 ft | 411 kts | 168° |
| 2026-05-05 12:03 | 43.00055 | 10.89209 | 33989 ft | 395 kts | 168° |
| 2026-05-05 12:03 | 42.97505 | 10.90369 | 33988 ft | 379 kts | 169° |
| 2026-05-05 12:04 | 42.95055 | 10.91480 | 33991 ft | 363 kts | 169° |
| 2026-05-05 12:04 | 42.92701 | 10.92544 | 33993 ft | 352 kts | 169° |
| 2026-05-05 12:04 | 42.87993 | 10.94652 | 34044 ft | 363 kts | 169° |
| 2026-05-05 12:05 | 42.83096 | 10.96856 | 34024 ft | 377 kts | 169° |
| 2026-05-05 12:05 | 42.80654 | 10.98243 | 34002 ft | 388 kts | 154° |
| 2026-05-05 12:05 | 42.78576 | 11.00652 | 33815 ft | 400 kts | 134° |
| 2026-05-05 12:06 | 42.76995 | 11.03784 | 33395 ft | 402 kts | 128° |
| 2026-05-05 12:06 | 42.75504 | 11.07002 | 32789 ft | 404 kts | 128° |
| 2026-05-05 12:06 | 42.74001 | 11.10287 | 31806 ft | 415 kts | 127° |
| 2026-05-05 12:06 | 42.72422 | 11.13703 | 30407 ft | 439 kts | 127° |
| 2026-05-05 12:07 | 42.70755 | 11.17277 | 29324 ft | 451 kts | 127° |
| 2026-05-05 12:07 | 42.69074 | 11.20863 | 28752 ft | 447 kts | 127° |
| 2026-05-05 12:07 | 42.67416 | 11.24388 | 28336 ft | 440 kts | 127° |
| 2026-05-05 12:07 | 42.65772 | 11.27864 | 27882 ft | 435 kts | 127° |
| 2026-05-05 12:08 | 42.64135 | 11.31310 | 27340 ft | 432 kts | 127° |
| 2026-05-05 12:08 | 42.62512 | 11.34718 | 26805 ft | 429 kts | 127° |
| 2026-05-05 12:08 | 42.60920 | 11.38056 | 26312 ft | 426 kts | 127° |
| 2026-05-05 12:08 | 42.59312 | 11.41426 | 25829 ft | 422 kts | 127° |
| 2026-05-05 12:09 | 42.57723 | 11.44754 | 25351 ft | 419 kts | 127° |
| 2026-05-05 12:09 | 42.56139 | 11.48067 | 24890 ft | 416 kts | 127° |
| 2026-05-05 12:09 | 42.54274 | 11.50986 | 24390 ft | 405 kts | 145° |
| 2026-05-05 12:09 | 42.51928 | 11.52948 | 23936 ft | 391 kts | 162° |
| 2026-05-05 12:10 | 42.49382 | 11.54185 | 23492 ft | 385 kts | 167° |
| 2026-05-05 12:10 | 42.46839 | 11.55302 | 22931 ft | 383 kts | 167° |
| 2026-05-05 12:10 | 42.44320 | 11.56431 | 22410 ft | 380 kts | 166° |
| 2026-05-05 12:10 | 42.41849 | 11.57576 | 22225 ft | 369 kts | 166° |
| 2026-05-05 12:11 | 42.39466 | 11.58697 | 22053 ft | 356 kts | 166° |
| 2026-05-05 12:11 | 42.37142 | 11.59786 | 21448 ft | 352 kts | 166° |
| 2026-05-05 12:11 | 42.34846 | 11.60858 | 20895 ft | 346 kts | 166° |
| 2026-05-05 12:11 | 42.32583 | 11.61913 | 20346 ft | 341 kts | 166° |
| 2026-05-05 12:12 | 42.30351 | 11.62953 | 19786 ft | 337 kts | 166° |
| 2026-05-05 12:12 | 42.28145 | 11.63981 | 19241 ft | 334 kts | 166° |
| 2026-05-05 12:12 | 42.25961 | 11.64996 | 18697 ft | 330 kts | 166° |
| 2026-05-05 12:12 | 42.23796 | 11.65952 | 18138 ft | 326 kts | 167° |
| 2026-05-05 12:13 | 42.21640 | 11.66875 | 17534 ft | 323 kts | 167° |
| 2026-05-05 12:13 | 42.19508 | 11.67783 | 16931 ft | 320 kts | 167° |
| 2026-05-05 12:13 | 42.17419 | 11.68674 | 16357 ft | 318 kts | 167° |
| 2026-05-05 12:13 | 42.15296 | 11.69585 | 15774 ft | 315 kts | 167° |
| 2026-05-05 12:14 | 42.13242 | 11.70467 | 15230 ft | 312 kts | 167° |
| 2026-05-05 12:14 | 42.11180 | 11.71352 | 14682 ft | 310 kts | 167° |
| 2026-05-05 12:14 | 42.09131 | 11.72278 | 14110 ft | 311 kts | 160° |
| 2026-05-05 12:14 | 42.07370 | 11.73992 | 13533 ft | 318 kts | 134° |
| 2026-05-05 12:15 | 42.06274 | 11.76581 | 12935 ft | 323 kts | 108° |
| 2026-05-05 12:15 | 42.06084 | 11.79584 | 12362 ft | 325 kts | 82° |
| 2026-05-05 12:15 | 42.06656 | 11.82510 | 11812 ft | 322 kts | 69° |
| 2026-05-05 12:15 | 42.07854 | 11.85009 | 11215 ft | 318 kts | 40° |
| 2026-05-05 12:16 | 42.09686 | 11.86575 | 10673 ft | 309 kts | 16° |
| 2026-05-05 12:16 | 42.11759 | 11.87143 | 10143 ft | 301 kts | 357° |
| 2026-05-05 12:16 | 42.13797 | 11.86782 | 9542 ft | 292 kts | 339° |
| 2026-05-05 12:16 | 42.15724 | 11.85974 | 8967 ft | 289 kts | 337° |
| 2026-05-05 12:17 | 42.17633 | 11.85112 | 8410 ft | 291 kts | 337° |
| 2026-05-05 12:17 | 42.19542 | 11.84265 | 7831 ft | 293 kts | 338° |
| 2026-05-05 12:17 | 42.21483 | 11.83422 | 7256 ft | 293 kts | 338° |
| 2026-05-05 12:17 | 42.23421 | 11.82589 | 6698 ft | 292 kts | 338° |
| 2026-05-05 12:18 | 42.25352 | 11.81761 | 6130 ft | 291 kts | 338° |
| 2026-05-05 12:18 | 42.27283 | 11.80932 | 5536 ft | 290 kts | 338° |
| 2026-05-05 12:18 | 42.29242 | 11.80351 | 4947 ft | 291 kts | 357° |
| 2026-05-05 12:18 | 42.31189 | 11.80936 | 4394 ft | 286 kts | 26° |
| 2026-05-05 12:19 | 42.32690 | 11.82579 | 3856 ft | 274 kts | 53° |
| 2026-05-05 12:19 | 42.33578 | 11.84771 | 3309 ft | 261 kts | 73° |
| 2026-05-05 12:19 | 42.34127 | 11.87059 | 2781 ft | 252 kts | 77° |
| 2026-05-05 12:19 | 42.34626 | 11.89231 | 2576 ft | 231 kts | 77° |
| 2026-05-05 12:20 | 42.34999 | 11.91200 | 2498 ft | 199 kts | 94° |
| 2026-05-05 12:20 | 42.34886 | 11.92357 | 2514 ft | 183 kts | 115° |
| 2026-05-05 12:20 | 42.34266 | 11.93821 | 2514 ft | 178 kts | 137° |
| 2026-05-05 12:20 | 42.33286 | 11.94822 | 2511 ft | 176 kts | 159° |
| 2026-05-05 12:21 | 42.32142 | 11.95380 | 2514 ft | 174 kts | 165° |
| 2026-05-05 12:21 | 42.30998 | 11.95867 | 2506 ft | 172 kts | 165° |
| 2026-05-05 12:21 | 42.29863 | 11.96349 | 2509 ft | 170 kts | 164° |
| 2026-05-05 12:21 | 42.28747 | 11.96822 | 2498 ft | 165 kts | 165° |
| 2026-05-05 12:22 | 42.27698 | 11.97485 | 2510 ft | 169 kts | 150° |
| 2026-05-05 12:22 | 42.26685 | 11.98352 | 2517 ft | 173 kts | 151° |
| 2026-05-05 12:22 | 42.25668 | 11.99206 | 2508 ft | 172 kts | 151° |
| 2026-05-05 12:22 | 42.24659 | 12.00051 | 2497 ft | 169 kts | 151° |
| 2026-05-05 12:23 | 42.23671 | 12.00875 | 2513 ft | 170 kts | 151° |
| 2026-05-05 12:23 | 42.22650 | 12.01722 | 2517 ft | 174 kts | 151° |
| 2026-05-05 12:23 | 42.21616 | 12.02579 | 2507 ft | 174 kts | 151° |
| 2026-05-05 12:23 | 42.20588 | 12.03433 | 2515 ft | 174 kts | 152° |
| 2026-05-05 12:24 | 42.19543 | 12.04295 | 2511 ft | 176 kts | 152° |
| 2026-05-05 12:24 | 42.18532 | 12.05131 | 2500 ft | 166 kts | 153° |
| 2026-05-05 12:24 | 42.17566 | 12.05927 | 2490 ft | 159 kts | 153° |
| 2026-05-05 12:24 | 42.16647 | 12.06684 | 2488 ft | 153 kts | 153° |
| 2026-05-05 12:25 | 42.15734 | 12.07434 | 2515 ft | 155 kts | 153° |
| 2026-05-05 12:25 | 42.14812 | 12.08191 | 2497 ft | 153 kts | 153° |
| 2026-05-05 12:25 | 42.13914 | 12.08928 | 2497 ft | 152 kts | 153° |
| 2026-05-05 12:25 | 42.13010 | 12.09671 | 2509 ft | 153 kts | 153° |
| 2026-05-05 12:26 | 42.12108 | 12.10410 | 2499 ft | 151 kts | 153° |
| 2026-05-05 12:26 | 42.11221 | 12.11138 | 2498 ft | 146 kts | 153° |
| 2026-05-05 12:26 | 42.10354 | 12.11850 | 2500 ft | 146 kts | 153° |
| 2026-05-05 12:26 | 42.09474 | 12.12569 | 2503 ft | 151 kts | 153° |
| 2026-05-05 12:27 | 42.08572 | 12.13309 | 2511 ft | 153 kts | 153° |
| 2026-05-05 12:27 | 42.07667 | 12.14051 | 2510 ft | 151 kts | 154° |
| 2026-05-05 12:27 | 42.06791 | 12.14768 | 2518 ft | 143 kts | 154° |
| 2026-05-05 12:27 | 42.05955 | 12.15454 | 2505 ft | 138 kts | 154° |
| 2026-05-05 12:28 | 42.05136 | 12.16123 | 2511 ft | 137 kts | 153° |
| 2026-05-05 12:28 | 42.04324 | 12.16788 | 2509 ft | 136 kts | 153° |
| 2026-05-05 12:28 | 42.03517 | 12.17448 | 2527 ft | 135 kts | 152° |
| 2026-05-05 12:28 | 42.02718 | 12.18097 | 2513 ft | 134 kts | 152° |
| 2026-05-05 12:29 | 42.01915 | 12.18704 | 2503 ft | 131 kts | 159° |
| 2026-05-05 12:29 | 42.01083 | 12.19152 | 2509 ft | 127 kts | 162° |
| 2026-05-05 12:29 | 42.00250 | 12.19554 | 2518 ft | 130 kts | 164° |
| 2026-05-05 12:29 | 41.99388 | 12.19940 | 2525 ft | 132 kts | 165° |
| 2026-05-05 12:30 | 41.98518 | 12.20315 | 2515 ft | 130 kts | 166° |
| 2026-05-05 12:30 | 41.97657 | 12.20679 | 2521 ft | 130 kts | 166° |
| 2026-05-05 12:30 | 41.96794 | 12.21041 | 2470 ft | 131 kts | 166° |
| 2026-05-05 12:30 | 41.95918 | 12.21413 | 2373 ft | 131 kts | 167° |
| 2026-05-05 12:31 | 41.95055 | 12.21771 | 2231 ft | 129 kts | 166° |
| 2026-05-05 12:31 | 41.94204 | 12.22139 | 2038 ft | 128 kts | 165° |
| 2026-05-05 12:31 | 41.93359 | 12.22486 | 1813 ft | 125 kts | 166° |
| 2026-05-05 12:31 | 41.92522 | 12.22805 | 1485 ft | 124 kts | 166° |
| 2026-05-05 12:32 | 41.91705 | 12.23116 | 1179 ft | 120 kts | 162° |
| 2026-05-05 12:32 | 41.90913 | 12.23413 | 895 ft | 118 kts | 163° |
| 2026-05-05 12:32 | 41.90129 | 12.23716 | 668 ft | 119 kts | 161° |
| 2026-05-05 12:32 | 41.89336 | 12.24076 | 567 ft | 121 kts | 162° |
| 2026-05-05 12:33 | 41.88529 | 12.24425 | 474 ft | 123 kts | 160° |
| 2026-05-05 12:33 | 41.87707 | 12.24784 | 404 ft | 123 kts | 160° |
| 2026-05-05 12:33 | 41.86881 | 12.25152 | 376 ft | 126 kts | 160° |
| 2026-05-05 12:33 | 41.86029 | 12.25524 | 282 ft | 132 kts | 161° |
| 2026-05-05 12:34 | 41.85184 | 12.25919 | 165 ft | 121 kts | 162° |
| 2026-05-05 12:34 | 41.84444 | 12.26215 | 23 ft | 96 kts | 163° |
| 2026-05-05 12:34 | 41.83964 | 12.26416 | 19 ft | 60 kts | 162° |
| 2026-05-05 12:34 | 41.83631 | 12.26557 | 21 ft | 46 kts | 162° |
| 2026-05-05 12:35 | 41.83340 | 12.26674 | 19 ft | 41 kts | 175° |
| 2026-05-05 12:35 | 41.83080 | 12.26614 | 18 ft | 37 kts | 192° |
| 2026-05-05 12:35 | 41.82843 | 12.26569 | 18 ft | 33 kts | 169° |
| 2026-05-05 12:35 | 41.82637 | 12.26643 | 20 ft | 29 kts | 164° |
| 2026-05-05 12:36 | 41.82447 | 12.26724 | 17 ft | 28 kts | 161° |
| 2026-05-05 12:36 | 41.82270 | 12.26804 | 15 ft | 26 kts | 161° |
| 2026-05-05 12:36 | 41.82075 | 12.26884 | 14 ft | 34 kts | 163° |
| 2026-05-05 12:36 | 41.81845 | 12.26940 | 16 ft | 35 kts | 193° |
| 2026-05-05 12:37 | 41.81594 | 12.26946 | 20 ft | 38 kts | 163° |
| 2026-05-05 12:37 | 41.81323 | 12.27058 | 20 ft | 43 kts | 162° |
| 2026-05-05 12:37 | 41.81025 | 12.27185 | 13 ft | 47 kts | 162° |
| 2026-05-05 12:37 | 41.80743 | 12.27082 | 11 ft | 49 kts | 243° |
| 2026-05-05 12:38 | 41.80632 | 12.26631 | 16 ft | 52 kts | 253° |
| 2026-05-05 12:38 | 41.80508 | 12.26199 | 13 ft | 45 kts | 227° |
| 2026-05-05 12:38 | 41.80235 | 12.26044 | 14 ft | 41 kts | 205° |
| 2026-05-05 12:38 | 41.79992 | 12.25894 | 17 ft | 36 kts | 205° |
| 2026-05-05 12:39 | 41.79823 | 12.25781 | 20 ft | 16 kts | 213° |
| 2026-05-05 12:39 | 41.79749 | 12.25725 | 19 ft | 0 kts | 238° |
| 2026-05-05 12:39 | 41.79749 | 12.25724 | 19 ft | 2 kts | 243° |
| 2026-05-05 12:39 | 41.79765 | 12.25665 | 17 ft | 0 kts | 294° |